Time;durP1;ratioP1;P1;durP2;ratioP2;P2;SDS_P1;SDS_P2;PMS_P1;PMS_P2;Temp;Humidity;BMP_temperature;BMP_pressure;BME280_temperature;BME280_humidity;BME280_pressure;Samples;Min_cycle;Max_cycle;Signal;HPM_P1;HPM_P2
2023/04/11 00:00:52;;;;;;;10.80;5.65;;;20.60;55.10;;;;;;4891516;29;20055;-73
2023/04/11 00:03:21;;;;;;;11.40;5.53;;;20.60;55.60;;;;;;4892644;29;20043;-72
2023/04/11 00:05:47;;;;;;;12.60;6.13;;;20.60;55.10;;;;;;4891125;29;20040;-73
2023/04/11 00:08:13;;;;;;;11.65;5.45;;;20.60;55.00;;;;;;4875024;29;20485;-72
2023/04/11 00:10:39;;;;;;;14.05;6.30;;;20.60;54.80;;;;;;4874525;29;20081;-73
2023/04/11 00:13:06;;;;;;;14.38;6.30;;;20.60;55.20;;;;;;4873692;29;20120;-72
2023/04/11 00:15:32;;;;;;;10.80;5.57;;;20.60;54.80;;;;;;4866985;29;20037;-73
2023/04/11 00:17:58;;;;;;;13.30;5.82;;;20.60;54.90;;;;;;4855118;29;20029;-72
2023/04/11 00:20:23;;;;;;;9.43;5.82;;;20.60;55.00;;;;;;4856779;29;20047;-72
2023/04/11 00:22:52;;;;;;;10.50;6.13;;;20.60;54.70;;;;;;4856708;29;20025;-73
2023/04/11 00:25:19;;;;;;;11.93;6.22;;;20.60;55.00;;;;;;4873462;29;20119;-72
2023/04/11 00:27:45;;;;;;;10.88;5.50;;;20.50;54.90;;;;;;4873557;29;20041;-73
2023/04/11 00:30:11;;;;;;;12.90;5.70;;;20.60;55.00;;;;;;4856653;29;20390;-72
2023/04/11 00:32:36;;;;;;;10.98;5.95;;;20.60;54.90;;;;;;4873280;29;20069;-73
2023/04/11 00:35:02;;;;;;;9.77;5.30;;;20.60;55.00;;;;;;4857915;29;20075;-72
2023/04/11 00:37:28;;;;;;;10.50;5.50;;;20.50;55.00;;;;;;4876227;29;20473;-72
2023/04/11 00:39:55;;;;;;;9.05;5.25;;;20.50;55.00;;;;;;4876159;29;20123;-72
2023/04/11 00:42:21;;;;;;;13.82;5.57;;;20.60;55.10;;;;;;4876546;29;20029;-72
2023/04/11 00:44:47;;;;;;;10.98;5.50;;;20.60;55.10;;;;;;4878003;29;20111;-72
2023/04/11 00:47:13;;;;;;;11.80;5.50;;;20.60;55.00;;;;;;4876090;29;20136;-72
2023/04/11 00:49:40;;;;;;;12.10;5.63;;;20.60;54.80;;;;;;4860959;29;20089;-72
2023/04/11 00:52:06;;;;;;;14.45;5.82;;;20.60;54.50;;;;;;4876332;29;20040;-72
2023/04/11 00:54:32;;;;;;;10.73;5.85;;;20.60;54.40;;;;;;4857109;29;20401;-72
2023/04/11 00:57:00;;;;;;;15.38;5.68;;;20.60;54.80;;;;;;4875892;29;20128;-72
2023/04/11 00:59:28;;;;;;;9.70;5.40;;;20.50;54.50;;;;;;4907473;23;20445;-72
2023/04/11 01:01:54;;;;;;;15.50;5.63;;;20.50;54.80;;;;;;4860741;29;20068;-72
2023/04/11 01:04:20;;;;;;;9.48;5.50;;;20.50;54.80;;;;;;4876365;29;20615;-73
2023/04/11 01:06:51;;;;;;;12.55;5.30;;;20.50;54.70;;;;;;4907639;29;20036;-73
2023/04/11 01:09:24;;;;;;;10.10;5.60;;;20.50;54.70;;;;;;4876161;29;20037;-73
2023/04/11 01:11:50;;;;;;;12.90;5.72;;;20.50;54.70;;;;;;4876433;29;20033;-73
2023/04/11 01:14:18;;;;;;;16.08;6.43;;;20.50;55.70;;;;;;4876311;29;20040;-73
2023/04/11 01:16:49;;;;;;;13.80;5.82;;;20.60;58.20;;;;;;4860896;29;20033;-75
2023/04/11 01:19:20;;;;;;;11.30;5.00;;;20.60;57.50;;;;;;4876837;29;20033;-73
2023/04/11 01:21:48;;;;;;;15.48;6.15;;;20.50;56.40;;;;;;4860555;29;20043;-73
2023/04/11 01:24:14;;;;;;;14.07;5.25;;;20.50;54.90;;;;;;4876301;29;20033;-73
2023/04/11 01:26:41;;;;;;;15.07;6.05;;;20.50;56.80;;;;;;4876140;29;20041;-73
2023/04/11 01:29:07;;;;;;;15.70;6.07;;;20.50;57.50;;;;;;4871529;29;20033;-73
2023/04/11 01:31:34;;;;;;;12.50;6.20;;;20.50;57.50;;;;;;4876572;29;20036;-73
2023/04/11 01:34:01;;;;;;;14.65;5.05;;;20.50;56.80;;;;;;4876001;29;20071;-73
2023/04/11 01:36:28;;;;;;;14.35;6.15;;;20.50;56.10;;;;;;4876007;29;20474;-73
2023/04/11 01:38:54;;;;;;;12.63;5.55;;;20.50;56.10;;;;;;4875642;29;20409;-73
2023/04/11 01:41:22;;;;;;;10.63;5.50;;;20.60;56.10;;;;;;4877178;29;20053;-73
2023/04/11 01:43:49;;;;;;;16.30;6.13;;;20.60;56.20;;;;;;4876891;29;20070;-73
2023/04/11 01:46:15;;;;;;;12.60;5.68;;;20.60;56.20;;;;;;4875905;29;20036;-73
2023/04/11 01:48:44;;;;;;;10.10;5.28;;;20.60;56.30;;;;;;4874758;29;20040;-72
2023/04/11 01:51:10;;;;;;;16.58;5.13;;;20.60;56.30;;;;;;4876885;29;20093;-73
2023/04/11 01:53:36;;;;;;;11.38;5.65;;;20.60;56.30;;;;;;4875542;29;20439;-74
2023/04/11 01:56:02;;;;;;;10.60;5.35;;;20.50;56.30;;;;;;4875923;29;20037;-73
2023/04/11 01:58:28;;;;;;;8.77;4.80;;;20.60;56.30;;;;;;4880122;29;20485;-73
2023/04/11 02:00:54;;;;;;;11.82;5.63;;;20.50;56.30;;;;;;4893764;29;20028;-73
2023/04/11 02:03:21;;;;;;;10.23;4.88;;;20.50;56.10;;;;;;4895437;29;20155;-74
2023/04/11 02:05:47;;;;;;;11.57;5.57;;;20.60;56.20;;;;;;4876251;29;20043;-74
2023/04/11 02:08:13;;;;;;;9.45;5.28;;;20.50;56.10;;;;;;4874250;29;20049;-73
2023/04/11 02:10:39;;;;;;;13.88;5.53;;;20.50;56.10;;;;;;4875205;29;20072;-73
2023/04/11 02:13:04;;;;;;;13.73;5.50;;;20.50;56.10;;;;;;4869845;29;20030;-72
2023/04/11 02:15:31;;;;;;;10.77;5.22;;;20.50;56.00;;;;;;4859846;29;20046;-71
2023/04/11 02:17:59;;;;;;;11.90;5.20;;;20.50;56.10;;;;;;4858271;29;20026;-72
2023/04/11 02:20:26;;;;;;;12.63;5.25;;;20.50;55.80;;;;;;4858801;29;20033;-73
2023/04/11 02:22:52;;;;;;;10.90;5.28;;;20.40;56.00;;;;;;4858226;29;20038;-72
2023/04/11 02:25:18;;;;;;;14.15;5.50;;;20.40;55.90;;;;;;4858876;29;20044;-72
2023/04/11 02:27:44;;;;;;;10.48;5.47;;;20.40;55.90;;;;;;4858728;29;20068;-72
2023/04/11 02:30:10;;;;;;;11.45;5.07;;;20.30;55.80;;;;;;4859640;29;20025;-72
2023/04/11 02:32:36;;;;;;;10.93;5.13;;;20.40;55.90;;;;;;4859639;29;20044;-72
2023/04/11 02:35:03;;;;;;;32.25;5.50;;;20.40;55.90;;;;;;4858385;29;20119;-72
2023/04/11 02:37:30;;;;;;;9.55;5.32;;;20.30;55.70;;;;;;4858330;29;20406;-72
2023/04/11 02:39:57;;;;;;;11.40;5.20;;;20.30;55.80;;;;;;4859147;29;20053;-72
2023/04/11 02:42:22;;;;;;;13.13;5.95;;;20.30;55.50;;;;;;4859526;29;20116;-72
2023/04/11 02:44:48;;;;;;;10.50;5.55;;;20.40;55.50;;;;;;4859217;29;20120;-73
2023/04/11 02:47:16;;;;;;;11.77;5.10;;;20.40;55.40;;;;;;4858040;29;20506;-73
2023/04/11 02:49:42;;;;;;;7.43;4.68;;;20.30;55.30;;;;;;4873175;29;20032;-72
2023/04/11 02:52:11;;;;;;;8.32;4.70;;;20.30;55.50;;;;;;4895270;29;20184;-71
2023/04/11 02:54:37;;;;;;;11.70;5.50;;;20.40;55.20;;;;;;4895349;29;20109;-72
2023/04/11 02:57:03;;;;;;;9.95;5.18;;;20.40;55.40;;;;;;4896502;29;20025;-72
2023/04/11 02:59:29;;;;;;;14.85;5.20;;;20.40;55.40;;;;;;4894569;29;20389;-72
2023/04/11 03:01:59;;;;;;;9.23;4.80;;;20.30;55.20;;;;;;4895374;29;20164;-72
2023/04/11 03:04:26;;;;;;;8.20;5.07;;;20.30;55.30;;;;;;4879608;29;20507;-71
2023/04/11 03:07:12;;;;;;;13.95;5.53;;;20.30;55.20;;;;;;4896063;29;20093;-72
2023/04/11 03:09:38;;;;;;;9.98;5.25;;;20.30;55.10;;;;;;4894787;29;20434;-72
2023/04/11 03:12:05;;;;;;;7.50;4.72;;;20.30;55.00;;;;;;4894971;29;20049;-72
2023/04/11 03:14:32;;;;;;;7.10;4.78;;;20.30;55.00;;;;;;4895011;29;20103;-72
2023/04/11 03:16:58;;;;;;;7.90;4.95;;;20.30;55.00;;;;;;4894966;29;20481;-72
2023/04/11 03:19:24;;;;;;;9.30;4.68;;;20.30;54.90;;;;;;4894899;29;20028;-72
2023/04/11 03:21:50;;;;;;;7.00;4.70;;;20.30;55.00;;;;;;4894959;29;20389;-72
2023/04/11 03:24:16;;;;;;;7.75;4.90;;;20.30;54.90;;;;;;4894893;29;20040;-72
2023/04/11 03:26:43;;;;;;;8.48;5.30;;;20.30;54.90;;;;;;4896022;29;20556;-72
2023/04/11 03:29:11;;;;;;;10.85;4.95;;;20.20;54.80;;;;;;4894491;29;20044;-72
2023/04/11 03:31:49;;;;;;;8.65;5.53;;;20.30;54.70;;;;;;4894554;29;20461;-72
2023/04/11 03:34:16;;;;;;;8.85;5.13;;;20.20;54.70;;;;;;4879386;29;20128;-72
2023/04/11 03:36:43;;;;;;;8.07;4.60;;;20.30;54.70;;;;;;4894869;29;20037;-72
2023/04/11 03:39:09;;;;;;;7.55;4.70;;;20.30;54.70;;;;;;4878603;29;20477;-72
2023/04/11 03:41:35;;;;;;;8.57;4.55;;;20.20;54.50;;;;;;4894581;29;20524;-72
2023/04/11 03:44:01;;;;;;;12.15;5.10;;;20.30;54.60;;;;;;4894843;29;20040;-72
2023/04/11 03:46:28;;;;;;;8.10;4.70;;;20.20;54.50;;;;;;4894743;29;20533;-72
2023/04/11 03:48:55;;;;;;;7.38;4.80;;;20.30;54.50;;;;;;4894213;29;20036;-73
2023/04/11 03:51:22;;;;;;;7.55;4.93;;;20.30;54.30;;;;;;4894589;29;20382;-72
2023/04/11 03:53:55;;;;;;;8.85;5.00;;;20.30;54.30;;;;;;4894207;29;20040;-72
2023/04/11 03:56:35;;;;;;;11.52;5.28;;;20.30;54.20;;;;;;4894570;29;20060;-72
2023/04/11 03:59:01;;;;;;;9.55;4.90;;;20.30;54.30;;;;;;4893707;29;20033;-71
2023/04/11 04:01:36;;;;;;;8.93;4.78;;;20.30;54.20;;;;;;4894403;29;20104;-71
2023/04/11 04:04:04;;;;;;;7.80;5.00;;;20.30;54.20;;;;;;4894495;29;20033;-71
2023/04/11 04:06:34;;;;;;;9.00;4.72;;;20.30;54.20;;;;;;4894464;29;20028;-72
2023/04/11 04:09:00;;;;;;;10.15;4.88;;;20.30;54.30;;;;;;4894111;29;20163;-72
2023/04/11 04:11:32;;;;;;;8.43;5.18;;;20.30;54.10;;;;;;4896286;29;20076;-72
2023/04/11 04:13:58;;;;;;;8.38;5.18;;;20.30;54.20;;;;;;4897820;29;20033;-72
2023/04/11 04:16:24;;;;;;;7.28;4.80;;;20.30;54.00;;;;;;4898082;29;20025;-72
2023/04/11 04:18:55;;;;;;;8.55;4.88;;;20.20;54.00;;;;;;4897614;29;20032;-72
2023/04/11 04:21:25;;;;;;;7.47;4.57;;;20.30;54.00;;;;;;4882981;29;20048;-72
2023/04/11 04:23:52;;;;;;;9.07;5.18;;;20.30;54.00;;;;;;4897848;29;20040;-72
2023/04/11 04:26:38;;;;;;;8.07;4.90;;;20.30;54.00;;;;;;4898203;29;20132;-71
2023/04/11 04:29:45;;;;;;;9.57;4.82;;;20.30;54.10;;;;;;4895018;29;20039;-72
2023/04/11 04:32:22;;;;;;;7.93;5.10;;;20.30;54.00;;;;;;4897991;29;20047;-71
2023/04/11 04:34:54;;;;;;;8.57;5.43;;;20.30;54.00;;;;;;4897739;29;20040;-71
2023/04/11 04:37:46;;;;;;;7.35;5.22;;;20.30;54.00;;;;;;4898543;29;20067;-72
2023/04/11 04:40:24;;;;;;;7.95;4.90;;;20.30;54.00;;;;;;4897746;29;20075;-72
2023/04/11 04:42:57;;;;;;;7.45;4.40;;;20.30;54.00;;;;;;4898043;29;20039;-72
2023/04/11 04:45:31;;;;;;;6.68;4.60;;;20.30;54.10;;;;;;4897377;29;20036;-72
2023/04/11 04:47:58;;;;;;;7.80;5.00;;;20.30;54.00;;;;;;4897201;29;20071;-72
2023/04/11 04:50:24;;;;;;;7.82;4.75;;;20.30;54.00;;;;;;4897433;29;20056;-72
2023/04/11 04:52:50;;;;;;;8.52;5.15;;;20.40;54.00;;;;;;4897592;29;20492;-72
2023/04/11 04:55:16;;;;;;;8.10;5.20;;;20.30;54.00;;;;;;4897167;29;20401;-72
2023/04/11 04:57:42;;;;;;;9.20;4.72;;;20.40;54.00;;;;;;4897494;29;20028;-73
2023/04/11 05:00:10;;;;;;;7.90;4.95;;;20.30;54.10;;;;;;4897972;29;20449;-72
2023/04/11 05:02:37;;;;;;;7.57;4.83;;;20.30;54.00;;;;;;4882101;29;20107;-72
2023/04/11 05:05:03;;;;;;;10.88;4.97;;;20.40;54.10;;;;;;4897106;29;20032;-72
2023/04/11 05:07:29;;;;;;;8.80;5.22;;;20.40;54.00;;;;;;4897330;29;20481;-72
2023/04/11 05:09:55;;;;;;;8.43;5.10;;;20.40;54.10;;;;;;4896832;29;20036;-72
2023/04/11 05:12:25;;;;;;;10.95;4.93;;;20.40;54.20;;;;;;4881632;29;20540;-72
2023/04/11 05:14:55;;;;;;;8.70;5.15;;;20.30;54.20;;;;;;4896995;29;20029;-72
2023/04/11 05:17:22;;;;;;;8.85;5.40;;;20.40;54.20;;;;;;4897178;29;20095;-72
2023/04/11 05:19:49;;;;;;;7.13;5.07;;;20.30;54.20;;;;;;4896705;29;20033;-72
2023/04/11 05:22:14;;;;;;;8.77;5.50;;;20.40;54.20;;;;;;4898193;29;20481;-72
2023/04/11 05:24:46;;;;;;;9.95;5.70;;;20.40;54.20;;;;;;4897067;29;20485;-72
2023/04/11 05:27:12;;;;;;;7.40;5.00;;;20.40;54.20;;;;;;4896964;29;20041;-72
2023/04/11 05:29:38;;;;;;;9.25;5.07;;;20.40;54.30;;;;;;4896232;29;20049;-71
2023/04/11 05:32:05;;;;;;;9.20;5.85;;;20.30;54.30;;;;;;4896781;29;20159;-72
2023/04/11 05:34:33;;;;;;;9.57;5.45;;;20.40;54.30;;;;;;4896510;29;20033;-71
2023/04/11 05:37:00;;;;;;;9.15;5.53;;;20.30;54.30;;;;;;4896732;29;20374;-72
2023/04/11 05:39:26;;;;;;;11.02;5.60;;;20.30;54.30;;;;;;4896090;29;20024;-72
2023/04/11 05:41:52;;;;;;;8.80;5.32;;;20.40;54.30;;;;;;4896807;29;20025;-71
2023/04/11 05:44:17;;;;;;;9.18;5.68;;;20.40;54.30;;;;;;4896826;29;20088;-71
2023/04/11 05:46:43;;;;;;;8.10;5.32;;;20.30;54.30;;;;;;4898134;29;20038;-71
2023/04/11 05:49:10;;;;;;;8.07;5.47;;;20.40;54.40;;;;;;4896173;29;20402;-71
2023/04/11 05:51:36;;;;;;;10.35;5.60;;;20.40;54.40;;;;;;4896329;29;20040;-72
2023/04/11 05:54:02;;;;;;;8.55;5.53;;;20.40;54.40;;;;;;4896401;29;20032;-72
2023/04/11 05:56:27;;;;;;;10.52;6.18;;;20.30;54.30;;;;;;4896273;29;20497;-71
2023/04/11 05:58:53;;;;;;;9.57;5.72;;;20.30;54.30;;;;;;4897075;29;20060;-72
2023/04/11 06:01:19;;;;;;;8.90;6.03;;;20.40;54.50;;;;;;4897721;29;20033;-71
2023/04/11 06:03:46;;;;;;;8.93;5.68;;;20.40;54.30;;;;;;4897398;29;20132;-72
2023/04/11 06:06:12;;;;;;;9.05;5.70;;;20.30;54.50;;;;;;4896165;29;20032;-71
2023/04/11 06:08:38;;;;;;;9.95;5.88;;;20.30;54.50;;;;;;4895995;29;20083;-72
2023/04/11 06:11:04;;;;;;;9.80;5.60;;;20.30;54.50;;;;;;4897088;29;20054;-72
2023/04/11 06:13:29;;;;;;;8.63;5.75;;;20.40;54.50;;;;;;4896116;29;20385;-72
2023/04/11 06:15:55;;;;;;;9.98;6.45;;;20.30;54.50;;;;;;4896947;29;20028;-72
2023/04/11 06:18:21;;;;;;;8.88;5.60;;;20.40;54.50;;;;;;4895692;29;20032;-72
2023/04/11 06:20:48;;;;;;;10.02;6.00;;;20.30;54.50;;;;;;4895902;29;20127;-72
2023/04/11 06:23:14;;;;;;;9.75;5.70;;;20.30;55.20;;;;;;4897027;29;20028;-71
2023/04/11 06:25:40;;;;;;;9.32;5.82;;;20.30;54.50;;;;;;4897004;29;20509;-72
2023/04/11 06:28:06;;;;;;;9.73;5.70;;;20.30;54.60;;;;;;4896570;29;20032;-72
2023/04/11 06:30:31;;;;;;;10.98;6.10;;;20.30;55.00;;;;;;4896739;29;20037;-72
2023/04/11 06:32:57;;;;;;;9.80;5.75;;;20.40;54.70;;;;;;4895698;29;20400;-72
2023/04/11 06:35:23;;;;;;;10.13;5.85;;;20.30;54.50;;;;;;4895866;29;20036;-72
2023/04/11 06:37:51;;;;;;;10.88;6.18;;;20.40;54.50;;;;;;4896680;29;20054;-72
2023/04/11 06:40:19;;;;;;;12.48;6.88;;;20.30;54.50;;;;;;4896561;29;20051;-73
2023/04/11 06:42:46;;;;;;;10.40;6.45;;;20.30;54.60;;;;;;4896526;29;20088;-73
2023/04/11 06:45:12;;;;;;;9.73;6.13;;;20.40;54.50;;;;;;4896782;29;20515;-73
2023/04/11 06:47:37;;;;;;;9.70;5.93;;;20.30;54.50;;;;;;4894948;29;20077;-72
2023/04/11 06:50:04;;;;;;;10.60;7.00;;;20.30;54.60;;;;;;4895737;29;20497;-73
2023/04/11 06:52:30;;;;;;;11.15;6.55;;;20.40;54.60;;;;;;4895217;29;20103;-73
2023/04/11 06:54:55;;;;;;;10.32;6.30;;;20.40;54.60;;;;;;4895969;29;20123;-73
2023/04/11 06:57:21;;;;;;;10.70;6.20;;;20.40;54.60;;;;;;4896169;29;20029;-73
2023/04/11 06:59:47;;;;;;;9.23;5.80;;;20.30;54.60;;;;;;4894682;29;20028;-73
2023/04/11 07:02:13;;;;;;;10.00;6.38;;;20.30;54.60;;;;;;4896281;29;20556;-73
2023/04/11 07:04:39;;;;;;;8.68;5.82;;;20.30;54.50;;;;;;4896416;29;20485;-71
2023/04/11 07:07:05;;;;;;;8.98;5.82;;;20.40;54.50;;;;;;4896324;29;20040;-72
2023/04/11 07:09:31;;;;;;;9.70;5.93;;;20.40;54.60;;;;;;4895908;29;20033;-72
2023/04/11 07:11:57;;;;;;;10.30;6.32;;;20.40;54.60;;;;;;4895992;29;20473;-72
2023/04/11 07:14:23;;;;;;;11.63;6.15;;;20.40;54.60;;;;;;4896149;29;20031;-73
2023/04/11 07:16:49;;;;;;;9.52;5.68;;;20.30;54.70;;;;;;4895093;29;20413;-72
2023/04/11 07:19:15;;;;;;;10.32;6.15;;;20.30;54.70;;;;;;4894526;29;20039;-72
2023/04/11 07:21:40;;;;;;;10.00;5.57;;;20.40;54.70;;;;;;4896013;29;20064;-73
2023/04/11 07:24:06;;;;;;;11.88;6.13;;;20.40;54.70;;;;;;4879287;29;20115;-76
2023/04/11 07:26:34;;;;;;;10.40;6.30;;;20.40;55.10;;;;;;4867340;29;20032;-75
2023/04/11 07:29:00;;;;;;;10.95;5.85;;;20.30;53.90;;;;;;4872838;29;20033;-75
2023/04/11 07:31:50;;;;;;;9.98;6.00;;;20.20;53.60;;;;;;4874686;29;20542;-76
2023/04/11 07:34:37;;;;;;;13.80;6.22;;;20.10;53.10;;;;;;4870953;29;20132;-77
2023/04/11 07:37:03;;;;;;;9.70;6.35;;;20.00;52.70;;;;;;4874003;29;20049;-73
2023/04/11 07:39:34;;;;;;;13.63;6.03;;;20.00;52.70;;;;;;4875035;29;20504;-74
2023/04/11 07:42:06;;;;;;;10.55;6.10;;;20.00;53.20;;;;;;4858372;29;20494;-75
2023/04/11 07:44:32;;;;;;;12.25;6.18;;;20.00;53.20;;;;;;4874668;29;20082;-74
2023/04/11 07:46:58;;;;;;;9.63;5.63;;;20.00;53.10;;;;;;4874888;29;20490;-74
2023/04/11 07:49:23;;;;;;;8.35;5.30;;;20.10;53.70;;;;;;4874875;29;20048;-74
2023/04/11 07:51:49;;;;;;;10.05;5.68;;;20.10;53.30;;;;;;4874846;29;20240;-74
2023/04/11 07:54:15;;;;;;;12.10;6.18;;;20.20;54.10;;;;;;4876703;29;20040;-74
2023/04/11 07:56:41;;;;;;;12.63;6.45;;;20.30;54.90;;;;;;4876504;29;20033;-74
2023/04/11 07:59:07;;;;;;;10.90;5.30;;;20.40;55.20;;;;;;4855426;29;20043;-74
2023/04/11 08:01:33;;;;;;;10.50;6.22;;;20.40;54.80;;;;;;4872884;29;20037;-73
2023/04/11 08:04:02;;;;;;;9.82;5.65;;;20.50;55.90;;;;;;4852671;29;20269;-74
2023/04/11 08:06:28;;;;;;;9.02;5.30;;;20.50;55.40;;;;;;4882195;29;20409;-74
2023/04/11 08:08:57;;;;;;;10.82;5.05;;;20.50;55.30;;;;;;4871133;29;20486;-74
2023/04/11 08:11:28;;;;;;;6.95;4.82;;;20.50;55.20;;;;;;4869763;29;20069;-73
2023/04/11 08:13:59;;;;;;;9.75;5.00;;;20.50;55.20;;;;;;4856276;29;20123;-73
2023/04/11 08:16:32;;;;;;;9.32;4.63;;;20.50;55.10;;;;;;4871023;29;20116;-76
2023/04/11 08:18:58;;;;;;;6.60;4.40;;;20.50;55.20;;;;;;4856008;29;20045;-74
2023/04/11 08:21:37;;;;;;;9.33;4.97;;;20.50;55.20;;;;;;4840993;29;20041;-73
2023/04/11 08:24:03;;;;;;;9.57;5.28;;;20.50;55.30;;;;;;4857827;29;20025;-75
2023/04/11 08:26:29;;;;;;;9.05;4.57;;;20.60;55.50;;;;;;4871052;29;20036;-74
2023/04/11 08:28:55;;;;;;;9.65;4.72;;;20.60;55.60;;;;;;4870337;29;20485;-74
2023/04/11 08:31:21;;;;;;;7.03;4.60;;;20.50;55.70;;;;;;4871112;29;20052;-74
2023/04/11 08:33:47;;;;;;;9.80;4.72;;;20.50;55.60;;;;;;4856141;29;20091;-75
2023/04/11 08:36:13;;;;;;;9.90;4.80;;;20.60;55.70;;;;;;4871257;29;20505;-73
2023/04/11 08:38:39;;;;;;;8.13;4.35;;;20.60;55.70;;;;;;4871734;29;20517;-74
2023/04/11 08:41:05;;;;;;;9.45;4.90;;;20.60;55.80;;;;;;4872590;29;20073;-74
2023/04/11 08:43:42;;;;;;;6.65;3.97;;;20.60;55.90;;;;;;4872189;29;20037;-73
2023/04/11 08:46:08;;;;;;;6.32;4.32;;;20.60;56.00;;;;;;4854074;29;20034;-74
2023/04/11 08:48:34;;;;;;;8.93;4.55;;;20.60;56.00;;;;;;4851867;29;20457;-75
2023/04/11 08:51:00;;;;;;;9.35;4.07;;;20.60;56.00;;;;;;4872303;29;20049;-74
2023/04/11 08:53:28;;;;;;;8.55;3.92;;;20.60;56.10;;;;;;4872860;29;20029;-73
2023/04/11 08:55:53;;;;;;;6.38;4.00;;;20.60;56.10;;;;;;4873074;29;20500;-74
2023/04/11 08:58:19;;;;;;;8.60;4.00;;;20.60;56.10;;;;;;4872972;29;20455;-74
2023/04/11 09:00:45;;;;;;;7.13;4.13;;;20.60;56.10;;;;;;4873989;29;20509;-74
2023/04/11 09:03:14;;;;;;;8.27;3.85;;;20.60;56.10;;;;;;4875178;29;20088;-74
2023/04/11 09:05:42;;;;;;;8.13;3.58;;;20.60;56.10;;;;;;4875078;29;20044;-75
2023/04/11 09:08:13;;;;;;;10.85;3.22;;;20.50;55.50;;;;;;4873995;29;20044;-75
2023/04/11 09:10:41;;;;;;;9.95;3.40;;;20.40;54.30;;;;;;4873247;29;20421;-73
2023/04/11 09:13:27;;;;;;;6.85;3.10;;;20.30;53.30;;;;;;4873969;29;20424;-73
2023/04/11 09:16:13;;;;;;;9.73;3.20;;;20.40;53.30;;;;;;4873282;29;20045;-75
2023/04/11 09:18:45;;;;;;;10.43;3.33;;;20.40;53.20;;;;;;4875366;29;20029;-74
2023/04/11 09:21:13;;;;;;;8.40;3.45;;;20.50;52.90;;;;;;4875093;29;20264;-75
2023/04/11 09:23:39;;;;;;;9.48;3.22;;;20.50;52.80;;;;;;4875512;29;20037;-73
2023/04/11 09:26:07;;;;;;;6.22;2.70;;;20.50;53.00;;;;;;4875186;29;20029;-76
2023/04/11 09:28:49;;;;;;;8.73;3.38;;;20.50;53.30;;;;;;4874855;29;20048;-75
2023/04/11 09:31:15;;;;;;;10.13;3.30;;;20.60;54.30;;;;;;4856967;29;20506;-76
2023/04/11 09:33:55;;;;;;;18.90;3.38;;;20.60;54.50;;;;;;4875286;29;20502;-74
2023/04/11 09:36:23;;;;;;;5.43;2.85;;;20.60;53.90;;;;;;4875278;29;20975;-76
2023/04/11 09:38:50;;;;;;;7.65;3.10;;;20.60;53.70;;;;;;4873499;29;20088;-74
2023/04/11 09:41:32;;;;;;;9.93;2.90;;;20.60;53.70;;;;;;4876800;29;20029;-75
2023/04/11 09:43:58;;;;;;;9.07;3.38;;;20.60;54.20;;;;;;4877527;29;20490;-74
2023/04/11 09:46:24;;;;;;;11.00;3.33;;;20.60;54.60;;;;;;4879633;29;20037;-74
2023/04/11 09:48:52;;;;;;;12.30;3.50;;;20.60;54.20;;;;;;4879012;29;20395;-74
2023/04/11 09:51:18;;;;;;;8.13;3.10;;;20.60;54.60;;;;;;4877399;29;20025;-75
2023/04/11 09:53:45;;;;;;;22.20;3.67;;;20.70;55.00;;;;;;4877013;29;20029;-73
2023/04/11 09:56:11;;;;;;;13.60;3.40;;;20.60;54.60;;;;;;4875282;29;20089;-75
2023/04/11 09:58:38;;;;;;;10.60;2.85;;;20.60;54.50;;;;;;4872789;29;20072;-74
2023/04/11 10:01:07;;;;;;;14.30;3.60;;;20.60;54.50;;;;;;4874285;29;20037;-74
2023/04/11 10:03:35;;;;;;;21.23;3.13;;;20.60;56.00;;;;;;4873403;29;20104;-75
2023/04/11 10:06:19;;;;;;;17.25;3.50;;;20.60;55.00;;;;;;4873006;29;20036;-75
2023/04/11 10:08:46;;;;;;;9.10;3.20;;;20.60;54.80;;;;;;4870752;29;20040;-75
2023/04/11 10:11:13;;;;;;;12.55;3.55;;;20.60;54.60;;;;;;4872261;29;20029;-75
2023/04/11 10:13:43;;;;;;;11.00;3.67;;;20.60;54.60;;;;;;4874488;29;20366;-75
2023/04/11 10:16:11;;;;;;;17.20;3.50;;;20.60;54.50;;;;;;4873974;29;20068;-75
2023/04/11 10:18:59;;;;;;;7.78;3.28;;;20.60;54.50;;;;;;4843330;29;20037;-75
2023/04/11 10:21:33;;;;;;;9.73;3.20;;;20.60;54.40;;;;;;4875548;29;20044;-75
2023/04/11 10:24:29;;;;;;;10.77;2.80;;;20.60;54.30;;;;;;4874784;29;20044;-75
2023/04/11 10:26:59;;;;;;;10.48;3.25;;;20.70;54.30;;;;;;4871959;29;20481;-75
2023/04/11 10:29:39;;;;;;;14.68;3.20;;;20.60;54.60;;;;;;4874907;29;20401;-75
2023/04/11 10:32:22;;;;;;;5.90;2.70;;;20.70;54.80;;;;;;4877133;29;20021;-75
2023/04/11 10:34:51;;;;;;;13.32;3.13;;;20.70;54.60;;;;;;4875780;29;20037;-75
2023/04/11 10:37:18;;;;;;;8.02;2.90;;;20.70;54.90;;;;;;4875339;29;20033;-75
2023/04/11 10:39:50;;;;;;;9.85;3.35;;;20.70;54.60;;;;;;4875714;29;20025;-75
2023/04/11 10:42:42;;;;;;;9.88;3.08;;;20.60;54.70;;;;;;4875145;29;20037;-74
2023/04/11 10:45:17;;;;;;;5.00;2.30;;;20.70;54.70;;;;;;4875499;29;20406;-74
2023/04/11 10:47:55;;;;;;;7.07;2.75;;;20.60;54.80;;;;;;4876348;29;20064;-75
2023/04/11 10:50:30;;;;;;;14.48;3.10;;;20.60;54.90;;;;;;4861747;29;20451;-74
2023/04/11 10:53:06;;;;;;;10.65;2.92;;;20.60;55.30;;;;;;4873829;29;20041;-76
2023/04/11 10:55:49;;;;;;;9.88;3.03;;;20.70;55.70;;;;;;4873440;29;20032;-73
2023/04/11 10:58:18;;;;;;;15.48;3.58;;;20.70;56.40;;;;;;4871932;29;20064;-74
2023/04/11 11:00:53;;;;;;;10.90;3.00;;;20.70;56.30;;;;;;4870750;29;20040;-75
2023/04/11 11:03:20;;;;;;;12.85;3.50;;;20.70;56.90;;;;;;4871999;29;20033;-75
2023/04/11 11:05:46;;;;;;;16.90;4.28;;;20.80;57.00;;;;;;4873030;29;20517;-75
2023/04/11 11:08:12;;;;;;;11.75;3.28;;;20.80;57.60;;;;;;4872856;29;20037;-74
2023/04/11 11:10:42;;;;;;;9.63;3.30;;;20.90;57.10;;;;;;4873260;29;20044;-74
2023/04/11 11:13:08;;;;;;;;;;;20.90;57.40;;;;;;4873743;29;20052;-75
2023/04/11 11:15:38;;;;;;;16.75;3.50;;;20.90;56.20;;;;;;4871037;29;19920;-75
2023/04/11 11:18:07;;;;;;;10.68;3.35;;;21.00;57.80;;;;;;4872012;29;20025;-76
2023/04/11 11:20:35;;;;;;;10.35;3.85;;;21.10;57.80;;;;;;4872742;29;20021;-75
2023/04/11 11:23:03;;;;;;;12.77;3.35;;;21.10;58.60;;;;;;4872338;29;20115;-75
2023/04/11 11:25:30;;;;;;;12.05;3.53;;;21.10;57.80;;;;;;4872304;29;20482;-75
2023/04/11 11:28:02;;;;;;;11.00;3.60;;;21.10;57.50;;;;;;4873118;29;20029;-75
2023/04/11 11:30:31;;;;;;;7.80;3.30;;;21.10;57.30;;;;;;4871604;29;20044;-76
2023/04/11 11:32:57;;;;;;;11.02;3.30;;;21.10;57.70;;;;;;4856718;29;20040;-75
2023/04/11 11:35:24;;;;;;;11.95;3.47;;;21.10;58.10;;;;;;4872744;29;20042;-75
2023/04/11 11:37:51;;;;;;;9.90;3.28;;;21.10;58.20;;;;;;4871141;29;20032;-75
2023/04/11 11:40:23;;;;;;;10.52;3.58;;;21.10;57.80;;;;;;4871931;29;20426;-75
2023/04/11 11:42:50;;;;;;;12.90;3.30;;;21.10;57.80;;;;;;4841422;29;20045;-75
2023/04/11 11:45:18;;;;;;;12.10;3.22;;;21.10;57.80;;;;;;4873194;29;20080;-76
2023/04/11 11:47:46;;;;;;;10.65;3.38;;;21.10;57.80;;;;;;4872711;29;20029;-75
2023/04/11 11:50:30;;;;;;;10.70;3.25;;;21.00;57.60;;;;;;4872618;29;20116;-75
2023/04/11 11:53:14;;;;;;;12.20;3.35;;;21.00;57.50;;;;;;4871319;29;20120;-74
2023/04/11 11:55:42;;;;;;;12.77;3.17;;;21.00;57.80;;;;;;4870951;29;20033;-76
2023/04/11 11:58:08;;;;;;;12.70;3.47;;;21.00;57.60;;;;;;4871874;29;20100;-76
2023/04/11 12:00:36;;;;;;;9.68;3.30;;;21.00;57.50;;;;;;4873197;29;20426;-75
2023/04/11 12:03:03;;;;;;;9.85;3.15;;;21.00;57.50;;;;;;4871477;29;20029;-75
2023/04/11 12:05:33;;;;;;;10.68;3.00;;;21.00;57.50;;;;;;4870913;29;20036;-74
2023/04/11 12:08:03;;;;;;;9.60;2.85;;;21.00;57.30;;;;;;4872312;29;20044;-76
2023/04/11 12:10:39;;;;;;;10.88;3.45;;;21.00;57.30;;;;;;4871366;29;20116;-75
2023/04/11 12:13:20;;;;;;;8.60;3.20;;;21.00;57.50;;;;;;4840150;29;20585;-74
2023/04/11 12:15:53;;;;;;;7.22;3.28;;;21.00;57.30;;;;;;4872354;29;20213;-76
2023/04/11 12:18:20;;;;;;;7.78;2.97;;;21.00;57.30;;;;;;4871806;29;20033;-76
2023/04/11 12:20:49;;;;;;;13.27;2.92;;;21.00;57.30;;;;;;4870940;29;20033;-74
2023/04/11 12:23:16;;;;;;;22.40;3.97;;;21.00;57.10;;;;;;4871780;29;20052;-75
2023/04/11 12:25:42;;;;;;;11.52;3.10;;;21.00;57.00;;;;;;4870916;29;20048;-75
2023/04/11 12:28:09;;;;;;;7.90;2.95;;;21.00;57.00;;;;;;4872156;29;20047;-76
2023/04/11 12:30:35;;;;;;;9.38;3.33;;;20.90;56.90;;;;;;4871544;29;20124;-75
2023/04/11 12:33:01;;;;;;;8.30;2.88;;;21.00;56.90;;;;;;4873548;29;20052;-77
2023/04/11 12:35:28;;;;;;;6.72;3.35;;;20.90;56.80;;;;;;4874356;29;20033;-74
2023/04/11 12:37:54;;;;;;;8.55;3.13;;;21.00;56.90;;;;;;4874796;29;20136;-75
2023/04/11 12:40:20;;;;;;;9.82;3.17;;;20.90;56.70;;;;;;4873588;29;20036;-75
2023/04/11 12:42:47;;;;;;;8.38;3.50;;;20.90;56.70;;;;;;4875900;29;20063;-76
2023/04/11 12:45:15;;;;;;;7.25;2.92;;;20.90;56.70;;;;;;4875845;29;20033;-75
2023/04/11 12:47:41;;;;;;;10.10;3.40;;;20.90;56.60;;;;;;4875471;29;20033;-76
2023/04/11 12:50:08;;;;;;;6.50;3.28;;;20.90;56.60;;;;;;4874879;29;20033;-76